Terminal Aerodrome Forecast
Issued by NWS

Home | Current Version | Previous Version | Text Only | Print | Product List | Glossary Off
Versions: 1 2 3 4 5 6 7 8 9 10 11 12

000
FTUS43 KICT 172330
TAFCNU
TAF
KCNU 172330Z 1800/1824 16007KT P6SM FEW060
     FM180200 VRB03KT P6SM SKC
     FM181400 19007KT P6SM SCT250
     FM181800 18010KT P6SM SCT050=

USA.gov is the U.S. government's official web portal to all federal, state and local government web resources and services.